Time;durP1;ratioP1;P1;durP2;ratioP2;P2;SDS_P1;SDS_P2;PMS_P1;PMS_P2;Temp;Humidity;BMP_temperature;BMP_pressure;BME280_temperature;BME280_humidity;BME280_pressure;Samples;Min_cycle;Max_cycle;Signal;HPM_P1;HPM_P2
2022/09/09 00:02:12;;;;;;;;;;;;;;;17.91;100.00;97881.98;1682590;84;20297;-88
2022/09/09 00:04:46;;;;;;;;;;;;;;;17.94;100.00;97887.79;1687252;83;26820;-89
2022/09/09 00:07:30;;;;;;;;;;;;;;;17.91;100.00;97884.63;1688592;83;24630;-89
2022/09/09 00:10:04;;;;;;;;;;;;;;;17.87;100.00;97892.09;1680558;83;20251;-88
2022/09/09 00:15:43;;;;;;;;;;;;;;;17.80;100.00;97890.25;1685771;83;22157;-89
2022/09/09 00:18:16;;;;;;;;;;;;;;;17.74;100.00;97882.48;1657112;84;26053;-90
2022/09/09 00:20:57;;;;;;;;;;;;;;;17.72;100.00;97891.59;1681865;83;24857;-88
2022/09/09 00:23:25;;;;;;;;;;;;;;;17.68;100.00;97887.11;1688546;84;20252;-88
2022/09/09 00:26:09;;;;;;;;;;;;;;;17.68;100.00;97886.27;1683284;83;24824;-88
2022/09/09 00:28:47;;;;;;;;;;;;;;;17.69;100.00;97897.20;1680513;84;21984;-88
2022/09/09 00:31:16;;;;;;;;;;;;;;;17.69;100.00;97895.38;1681131;84;26646;-89
2022/09/09 00:33:43;;;;;;;;;;;;;;;17.69;100.00;97893.23;1684173;84;25339;-89
2022/09/09 00:36:15;;;;;;;;;;;;;;;17.65;100.00;97895.39;1690337;83;20279;-88
2022/09/09 00:38:46;;;;;;;;;;;;;;;17.65;100.00;97900.69;1682828;84;24764;-89
2022/09/09 00:41:15;;;;;;;;;;;;;;;17.68;100.00;97905.63;1687594;84;21944;-88
2022/09/09 00:43:43;;;;;;;;;;;;;;;17.67;100.00;97909.30;1686047;84;26838;-88
2022/09/09 00:46:24;;;;;;;;;;;;;;;17.66;100.00;97903.67;1682768;84;25503;-88
2022/09/09 00:49:18;;;;;;;;;;;;;;;17.66;100.00;97903.67;1675767;83;20256;-87
2022/09/09 00:52:02;;;;;;;;;;;;;;;17.65;100.00;97913.91;1689451;84;24764;-87
2022/09/09 00:54:55;;;;;;;;;;;;;;;17.64;100.00;97913.58;1669145;84;38099;-88
2022/09/09 00:57:35;;;;;;;;;;;;;;;17.65;100.00;97920.53;1689064;83;26368;-88
2022/09/09 01:00:24;;;;;;;;;;;;;;;17.68;100.00;97917.54;1681861;83;24615;-89
2022/09/09 01:03:09;;;;;;;;;;;;;;;17.69;100.00;97919.20;1687725;83;20307;-88
2022/09/09 01:05:50;;;;;;;;;;;;;;;17.66;100.00;97920.03;1684387;83;24825;-88
2022/09/09 01:08:30;;;;;;;;;;;;;;;17.67;100.00;97920.37;1680482;84;22022;-89
2022/09/09 01:10:57;;;;;;;;;;;;;;;17.66;100.00;97920.87;1689041;84;25796;-88
2022/09/09 01:13:33;;;;;;;;;;;;;;;17.66;100.00;97922.19;1691154;83;25179;-88
2022/09/09 01:16:02;;;;;;;;;;;;;;;17.68;100.00;97920.68;1681479;83;20236;-89
2022/09/09 01:18:37;;;;;;;;;;;;;;;17.67;100.00;97921.20;1682742;84;24993;-89
2022/09/09 01:21:11;;;;;;;;;;;;;;;17.70;100.00;97916.06;1689810;84;21960;-88
2022/09/09 01:23:56;;;;;;;;;;;;;;;17.70;100.00;97916.89;1689368;83;26251;-89
2022/09/09 01:26:26;;;;;;;;;;;;;;;17.71;100.00;97924.34;1680523;83;24378;-89
2022/09/09 01:28:52;;;;;;;;;;;;;;;17.71;100.00;97926.49;1686934;84;20275;-89
2022/09/09 01:31:38;;;;;;;;;;;;;;;17.71;100.00;97928.31;1681414;83;24781;-88
2022/09/09 01:34:06;;;;;;;;;;;;;;;17.70;100.00;97926.16;1683287;83;22093;-89
2022/09/09 01:36:35;;;;;;;;;;;;;;;17.68;100.00;97940.03;1680407;83;26071;-88
2022/09/09 01:39:03;;;;;;;;;;;;;;;17.65;100.00;97940.38;1675950;83;24439;-89
2022/09/09 01:41:32;;;;;;;;;;;;;;;17.63;100.00;97947.64;1687732;83;20663;-89
2022/09/09 01:43:58;;;;;;;;;;;;;;;17.61;100.00;97944.84;1682466;83;24828;-88
2022/09/09 01:46:24;;;;;;;;;;;;;;;17.58;100.00;97945.45;1688643;83;21968;-88
2022/09/09 01:48:52;;;;;;;;;;;;;;;17.55;100.00;97951.09;1680498;84;25687;-89
2022/09/09 01:51:28;;;;;;;;;;;;;;;17.54;100.00;97941.48;1679495;83;25235;-88
2022/09/09 01:53:54;;;;;;;;;;;;;;;17.54;100.00;97943.30;1685906;84;20306;-89
2022/09/09 01:56:43;;;;;;;;;;;;;;;17.54;100.00;97941.98;1689511;84;20566;-89
2022/09/09 01:59:16;;;;;;;;;;;;;;;17.53;100.00;97945.13;1679100;83;22022;-89
2022/09/09 02:01:44;;;;;;;;;;;;;;;17.52;100.00;97949.24;1679822;83;26184;-88
2022/09/09 02:04:17;;;;;;;;;;;;;;;17.52;100.00;97953.21;1680628;82;24447;-89
2022/09/09 02:06:45;;;;;;;;;;;;;;;17.52;100.00;97958.50;1660994;85;20244;-89
2022/09/09 02:09:15;;;;;;;;;;;;;;;17.54;100.00;97953.39;1687051;84;24820;-88
2022/09/09 02:11:42;;;;;;;;;;;;;;;17.57;100.00;97964.13;1666587;84;22808;-88
2022/09/09 02:14:16;;;;;;;;;;;;;;;17.55;100.00;97960.34;1690381;83;26772;-89
2022/09/09 02:16:43;;;;;;;;;;;;;;;17.57;100.00;97958.84;1683270;83;24442;-89
2022/09/09 02:19:13;;;;;;;;;;;;;;;17.58;100.00;97963.98;1682260;83;20288;-88
2022/09/09 02:21:41;;;;;;;;;;;;;;;17.60;100.00;97965.18;1667896;83;24806;-88
2022/09/09 02:24:10;;;;;;;;;;;;;;;17.61;100.00;97965.52;1681768;83;22005;-88
2022/09/09 02:26:43;;;;;;;;;;;;;;;17.60;100.00;97962.53;1682280;84;26101;-89
2022/09/09 02:29:24;;;;;;;;;;;;;;;17.60;100.00;97971.80;1663771;84;25325;-88
2022/09/09 02:31:51;;;;;;;;;;;;;;;17.65;100.00;97971.30;1684245;84;20212;-89
2022/09/09 02:34:20;;;;;;;;;;;;;;;17.64;100.00;97969.15;1688339;83;25482;-89
2022/09/09 02:36:47;;;;;;;;;;;;;;;17.67;100.00;97972.81;1679223;84;22253;-89
2022/09/09 02:39:15;;;;;;;;;;;;;;;17.71;100.00;97976.78;1684280;83;25839;-89
2022/09/09 02:41:42;;;;;;;;;;;;;;;17.71;100.00;97978.10;1682665;83;25317;-89
2022/09/09 02:44:12;;;;;;;;;;;;;;;17.74;100.00;97981.73;1686012;83;20228;-89
2022/09/09 02:46:56;;;;;;;;;;;;;;;17.78;100.00;97976.44;1682125;83;25590;-88
2022/09/09 02:49:26;;;;;;;;;;;;;;;17.80;100.00;97977.61;1684527;83;22818;-88
2022/09/09 02:52:05;;;;;;;;;;;;;;;17.79;100.00;97984.72;1685710;83;26191;-89
2022/09/09 02:54:43;;;;;;;;;;;;;;;17.80;100.00;97981.58;1680853;84;25225;-89
2022/09/09 02:57:15;;;;;;;;;;;;;;;17.82;100.00;97979.11;1679351;84;20184;-89
2022/09/09 02:59:43;;;;;;;;;;;;;;;17.84;100.00;97982.90;1685375;84;24250;-88
2022/09/09 03:02:12;;;;;;;;;;;;;;;17.83;100.00;97987.89;1683882;84;22020;-88
2022/09/09 03:04:44;;;;;;;;;;;;;;;17.75;100.00;97986.04;1683652;83;26031;-88
2022/09/09 03:07:10;;;;;;;;;;;;;;;17.62;100.00;97980.91;1673748;84;24516;-89
2022/09/09 03:09:36;;;;;;;;;;;;;;;17.62;100.00;97993.61;1682577;84;20235;-89
2022/09/09 03:12:04;;;;;;;;;;;;;;;17.69;100.00;97996.45;1679773;83;25614;-88
2022/09/09 03:14:45;;;;;;;;;;;;;;;17.73;100.00;97997.28;1672463;84;22779;-88
2022/09/09 03:17:13;;;;;;;;;;;;;;;17.77;100.00;98005.25;1684387;84;26079;-89
2022/09/09 03:19:46;;;;;;;;;;;;;;;17.68;100.00;97998.27;1684525;84;24396;-89
2022/09/09 03:22:13;;;;;;;;;;;;;;;17.60;100.00;98002.23;1687680;83;20279;-89
2022/09/09 03:24:41;;;;;;;;;;;;;;;17.62;100.00;97999.43;1679628;84;24937;-89
2022/09/09 03:27:14;;;;;;;;;;;;;;;17.68;100.00;98009.34;1682349;84;21913;-89
2022/09/09 03:29:46;;;;;;;;;;;;;;;17.72;100.00;98004.91;1689605;84;25406;-89
2022/09/09 03:32:18;;;;;;;;;;;;;;;17.70;100.00;98002.91;1679958;84;24614;-89
2022/09/09 03:34:57;;;;;;;;;;;;;;;17.68;100.00;98007.52;1680261;83;20442;-89
2022/09/09 03:37:23;;;;;;;;;;;;;;;17.65;100.00;98009.19;1690630;83;24678;-90
2022/09/09 03:39:49;;;;;;;;;;;;;;;17.60;100.00;98010.17;1680416;84;21427;-90
2022/09/09 03:42:18;;;;;;;;;;;;;;;17.70;100.00;98011.34;1679052;83;26800;-90
2022/09/09 03:44:49;;;;;;;;;;;;;;;17.73;100.00;98011.83;1688466;83;25341;-89
2022/09/09 03:47:13;;;;;;;;;;;;;;;17.78;100.00;98013.50;1682335;83;20240;-88
2022/09/09 03:49:39;;;;;;;;;;;;;;;17.82;100.00;98010.88;1682510;83;24753;-89
2022/09/09 03:52:15;;;;;;;;;;;;;;;17.83;100.00;98018.33;1683728;84;20295;-88
2022/09/09 03:54:42;;;;;;;;;;;;;;;17.86;100.00;98018.82;1683069;84;25958;-89
2022/09/09 03:57:09;;;;;;;;;;;;;;;17.94;100.00;98016.69;1682948;84;24437;-89
2022/09/09 03:59:50;;;;;;;;;;;;;;;17.94;100.00;98017.52;1683435;84;20191;-87
2022/09/09 04:02:18;;;;;;;;;;;;;;;17.95;100.00;98022.30;1680182;83;25097;-88
2022/09/09 04:04:46;;;;;;;;;;;;;;;17.96;100.00;98019.98;1675527;84;22677;-88
2022/09/09 04:07:17;;;;;;;;;;;;;;;17.95;100.00;98020.48;1681431;84;26830;-87
2022/09/09 04:09:47;;;;;;;;;;;;;;;17.94;100.00;98018.02;1687405;84;24607;-88
2022/09/09 04:12:23;;;;;;;;;;;;;;;17.90;100.00;98025.44;1677789;83;20258;-87
2022/09/09 04:14:49;;;;;;;;;;;;;;;17.89;100.00;98022.45;1681916;84;24869;-88
2022/09/09 04:17:15;;;;;;;;;;;;;;;17.86;100.00;98029.41;1688628;84;21936;-88
2022/09/09 04:19:47;;;;;;;;;;;;;;;17.83;100.00;98029.75;1685177;83;21134;-88
2022/09/09 04:22:13;;;;;;;;;;;;;;;17.80;100.00;98023.44;1680942;83;24600;-89
2022/09/09 04:24:40;;;;;;;;;;;;;;;17.77;100.00;98024.27;1683787;84;20257;-88
2022/09/09 04:27:06;;;;;;;;;;;;;;;17.74;100.00;98023.25;1682923;83;24309;-88
2022/09/09 04:29:38;;;;;;;;;;;;;;;17.74;100.00;98020.61;1683069;84;21924;-88
2022/09/09 04:32:06;;;;;;;;;;;;;;;17.75;100.00;98021.77;1681677;84;26323;-88
2022/09/09 04:34:32;;;;;;;;;;;;;;;17.75;100.00;98013.84;1688817;84;24526;-88
2022/09/09 04:37:00;;;;;;;;;;;;;;;17.75;100.00;98015.65;1688785;84;20278;-88
2022/09/09 04:39:26;;;;;;;;;;;;;;;17.73;100.00;98012.36;1663235;84;24846;-88
2022/09/09 04:41:52;;;;;;;;;;;;;;;17.70;100.00;98009.52;1687439;83;22141;-88
2022/09/09 04:44:21;;;;;;;;;;;;;;;17.68;100.00;98010.17;1680138;84;26138;-89
2022/09/09 04:47:00;;;;;;;;;;;;;;;17.64;100.00;98016.78;1680921;83;24417;-89
2022/09/09 04:49:25;;;;;;;;;;;;;;;17.60;100.00;98016.78;1675379;84;20299;-89
2022/09/09 04:52:01;;;;;;;;;;;;;;;17.57;100.00;98021.86;1670731;83;20230;-89
2022/09/09 04:54:33;;;;;;;;;;;;;;;17.57;100.00;98028.96;1684705;83;22001;-89
2022/09/09 04:57:06;;;;;;;;;;;;;;;17.56;100.00;98033.42;1680229;84;25890;-88
2022/09/09 04:59:43;;;;;;;;;;;;;;;17.56;100.00;98033.95;1653769;84;20534;-89
2022/09/09 05:02:20;;;;;;;;;;;;;;;17.57;100.00;98036.41;1675353;84;20679;-89
2022/09/09 05:04:49;;;;;;;;;;;;;;;17.58;100.00;98039.39;1678895;84;24819;-89
2022/09/09 05:07:15;;;;;;;;;;;;;;;17.62;100.00;98034.63;1672777;84;22085;-88
2022/09/09 05:09:41;;;;;;;;;;;;;;;17.64;100.00;98038.45;1683985;83;21071;-89
2022/09/09 05:12:12;;;;;;;;;;;;;;;17.64;100.00;98039.28;1680626;83;20254;-89
2022/09/09 05:14:40;;;;;;;;;;;;;;;17.65;100.00;98038.30;1678283;84;20292;-89
2022/09/09 05:17:14;;;;;;;;;;;;;;;17.68;100.00;98041.09;1686852;84;24885;-88
2022/09/09 05:19:37;;;;;;;;;;;;;;;17.68;100.00;98045.06;1682036;83;21984;-89
2022/09/09 05:22:04;;;;;;;;;;;;;;;17.70;100.00;98043.93;1688972;84;20986;-89
2022/09/09 05:24:33;;;;;;;;;;;;;;;17.76;100.00;98045.11;1685408;84;24839;-88
2022/09/09 05:27:01;;;;;;;;;;;;;;;17.80;100.00;98050.41;1684110;83;20196;-89
2022/09/09 05:29:28;;;;;;;;;;;;;;;17.79;100.00;98045.60;1688291;83;24293;-89
2022/09/09 05:31:54;;;;;;;;;;;;;;;17.79;100.00;98049.57;1691876;83;21971;-89
2022/09/09 05:34:23;;;;;;;;;;;;;;;17.78;100.00;98044.46;1681121;83;26872;-89
2022/09/09 05:36:55;;;;;;;;;;;;;;;17.79;100.00;98047.41;1678835;84;25252;-89
2022/09/09 05:39:21;;;;;;;;;;;;;;;17.84;100.00;98045.94;1683807;83;20326;-89
2022/09/09 05:41:47;;;;;;;;;;;;;;;17.88;100.00;98039.84;1685965;83;20242;-89
2022/09/09 05:44:24;;;;;;;;;;;;;;;17.94;100.00;98048.47;1680296;83;22537;-89
2022/09/09 05:46:51;;;;;;;;;;;;;;;17.96;100.00;98046.46;1682709;83;25820;-89
2022/09/09 05:49:18;;;;;;;;;;;;;;;18.00;100.00;98045.66;1682800;83;24518;-89
2022/09/09 05:51:56;;;;;;;;;;;;;;;18.02;100.00;98052.93;1682816;83;20231;-89
2022/09/09 05:54:23;;;;;;;;;;;;;;;18.05;100.00;98046.00;1684456;83;24841;-89
2022/09/09 05:56:50;;;;;;;;;;;;;;;18.04;100.00;98042.52;1686574;84;21751;-88
2022/09/09 05:59:18;;;;;;;;;;;;;;;18.08;100.00;98039.03;1684479;84;25949;-89
2022/09/09 06:01:45;;;;;;;;;;;;;;;18.10;100.00;98039.22;1689494;83;24477;-88
2022/09/09 06:04:12;;;;;;;;;;;;;;;18.13;100.00;98035.40;1690213;84;20306;-89
2022/09/09 06:06:43;;;;;;;;;;;;;;;18.13;100.00;98032.75;1675872;83;24755;-89
2022/09/09 06:09:13;;;;;;;;;;;;;;;18.16;100.00;98025.33;1686614;83;22212;-89
2022/09/09 06:11:41;;;;;;;;;;;;;;;18.19;100.00;98027.63;1685665;84;26229;-88
2022/09/09 06:14:26;;;;;;;;;;;;;;;18.24;100.00;98029.29;1690264;83;24625;-88
2022/09/09 06:16:59;;;;;;;;;;;;;;;18.31;100.00;98025.48;1689401;83;20608;-89
2022/09/09 06:19:31;;;;;;;;;;;;;;;18.34;100.00;98024.65;1687207;83;24732;-89
2022/09/09 06:22:12;;;;;;;;;;;;;;;18.42;100.00;98034.92;1677765;83;22141;-89
2022/09/09 06:24:42;;;;;;;;;;;;;;;18.47;100.00;98037.41;1683014;84;26306;-89
2022/09/09 06:27:10;;;;;;;;;;;;;;;18.54;100.00;98041.09;1674995;83;24536;-88
2022/09/09 06:29:41;;;;;;;;;;;;;;;18.62;100.00;98035.77;1676389;83;20254;-89
2022/09/09 06:32:12;;;;;;;;;;;;;;;18.68;100.00;98044.38;1673442;83;24775;-89
2022/09/09 06:34:41;;;;;;;;;;;;;;;18.72;100.00;98038.23;1687040;83;22000;-89
2022/09/09 06:37:08;;;;;;;;;;;;;;;18.74;100.00;98038.91;1668813;84;21712;-89
2022/09/09 06:39:35;;;;;;;;;;;;;;;18.80;100.00;98047.02;1687582;84;20257;-89
2022/09/09 06:42:01;;;;;;;;;;;;;;;18.84;100.00;98033.41;1677824;83;20579;-89
2022/09/09 06:44:27;;;;;;;;;;;;;;;18.84;100.00;98030.76;1690884;83;25476;-89
2022/09/09 06:47:00;;;;;;;;;;;;;;;18.83;100.00;98033.08;1686276;83;20239;-89
2022/09/09 06:49:28;;;;;;;;;;;;;;;18.88;100.00;98030.74;1666518;84;25847;-89
2022/09/09 06:52:00;;;;;;;;;;;;;;;18.93;100.00;98029.77;1687883;83;24754;-89
2022/09/09 06:54:26;;;;;;;;;;;;;;;18.95;100.00;98029.08;1686610;83;20497;-89
2022/09/09 06:56:52;;;;;;;;;;;;;;;19.02;100.00;98030.06;1690083;83;20259;-89
2022/09/09 06:59:23;;;;;;;;;;;;;;;19.03;100.00;98033.05;1681406;84;20270;-88
2022/09/09 07:01:47;;;;;;;;;;;;;;;19.07;100.00;98039.16;1681158;84;26015;-90
2022/09/09 07:04:20;;;;;;;;;;;;;;;19.13;100.00;98034.51;1686125;84;20322;-89
2022/09/09 07:06:47;;;;;;;;;;;;;;;19.20;100.00;98038.11;1682741;83;20239;-89
2022/09/09 07:09:21;;;;;;;;;;;;;;;19.22;100.00;98032.64;1692410;83;21020;-88
2022/09/09 07:11:49;;;;;;;;;;;;;;;19.25;100.00;98033.64;1678552;83;22083;-88
2022/09/09 07:14:15;;;;;;;;;;;;;;;19.34;100.00;98034.43;1685421;83;26267;-88
2022/09/09 07:16:42;;;;;;;;;;;;;;;19.42;100.00;98028.58;1685555;83;24459;-88
2022/09/09 07:19:16;;;;;;;;;;;;;;;19.51;100.00;98035.55;1679055;83;20342;-89
2022/09/09 07:21:43;;;;;;;;;;;;;;;19.58;100.00;98038.35;1675431;83;24914;-89
2022/09/09 07:24:10;;;;;;;;;;;;;;;19.64;100.00;98037.63;1683520;83;20222;-89
2022/09/09 07:26:43;;;;;;;;;;;;;;;19.72;100.00;98042.91;1686894;83;26216;-88
2022/09/09 07:29:15;;;;;;;;;;;;;;;19.78;100.00;98042.22;1685408;83;24480;-88
2022/09/09 07:31:42;;;;;;;;;;;;;;;19.82;100.00;98043.52;1689223;83;20141;-89
2022/09/09 07:34:13;;;;;;;;;;;;;;;19.92;100.00;98043.28;1671951;83;24882;-88
2022/09/09 07:36:41;;;;;;;;;;;;;;;19.98;100.00;98047.40;1677016;83;21964;-89
2022/09/09 07:39:17;;;;;;;;;;;;;;;20.07;100.00;98046.87;1678190;84;26034;-88
2022/09/09 07:41:48;;;;;;;;;;;;;;;20.10;100.00;98053.64;1682284;83;25094;-88
2022/09/09 07:44:15;;;;;;;;;;;;;;;20.11;100.00;98052.14;1688866;83;20200;-88
2022/09/09 07:46:47;;;;;;;;;;;;;;;20.13;100.00;98050.12;1691749;84;24739;-88
2022/09/09 07:49:17;;;;;;;;;;;;;;;20.16;100.00;98052.44;1687053;84;21980;-89
2022/09/09 07:51:49;;;;;;;;;;;;;;;20.18;100.00;98046.45;1678036;83;26138;-89
2022/09/09 07:54:15;;;;;;;;;;;;;;;20.22;100.00;98038.95;1686899;83;24560;-89
2022/09/09 07:56:49;;;;;;;;;;;;;;;20.24;100.00;98035.09;1687964;84;20507;-89
2022/09/09 07:59:15;;;;;;;;;;;;;;;20.30;100.00;98037.04;1680506;84;25785;-89
2022/09/09 08:01:48;;;;;;;;;;;;;;;20.28;100.00;98045.71;1688891;83;22051;-89
2022/09/09 08:04:17;;;;;;;;;;;;;;;20.30;100.00;98037.54;1688922;83;26053;-89
2022/09/09 08:06:46;;;;;;;;;;;;;;;20.34;100.00;98039.72;1690061;83;24679;-89
2022/09/09 08:09:12;;;;;;;;;;;;;;;20.40;100.00;98042.17;1681076;83;20314;-89
2022/09/09 08:11:43;;;;;;;;;;;;;;;20.45;100.00;98039.30;1679490;83;24812;-89
2022/09/09 08:14:12;;;;;;;;;;;;;;;20.56;100.00;98042.53;1689484;83;22018;-89
2022/09/09 08:16:41;;;;;;;;;;;;;;;20.66;100.00;98041.77;1682916;84;26123;-89
2022/09/09 08:19:16;;;;;;;;;;;;;;;20.70;100.00;98037.73;1683214;83;24396;-88
2022/09/09 08:21:43;;;;;;;;;;;;;;;20.75;100.00;98040.18;1683070;83;20204;-88
2022/09/09 08:24:14;;;;;;;;;;;;;;;20.78;100.00;98044.33;1683038;84;24750;-89
2022/09/09 08:26:47;;;;;;;;;;;;;;;20.81;100.00;98050.09;1676264;84;22589;-89
2022/09/09 08:29:13;;;;;;;;;;;;;;;20.85;100.00;98051.38;1682065;83;26036;-88
2022/09/09 08:31:42;;;;;;;;;;;;;;;20.88;100.00;98051.54;1690135;83;24404;-89
2022/09/09 08:34:08;;;;;;;;;;;;;;;20.92;100.00;98046.17;1685709;83;20252;-88
2022/09/09 08:36:38;;;;;;;;;;;;;;;20.96;100.00;98044.79;1691559;83;24403;-89
2022/09/09 08:39:05;;;;;;;;;;;;;;;20.98;100.00;98045.45;1680888;83;22874;-88
2022/09/09 08:41:33;;;;;;;;;;;;;;;21.00;100.00;98050.06;1687041;83;26167;-89
2022/09/09 08:44:00;;;;;;;;;;;;;;;20.98;100.00;98044.12;1689438;83;24639;-88
2022/09/09 08:46:29;;;;;;;;;;;;;;;21.02;100.00;98042.73;1681927;83;20372;-88
2022/09/09 08:49:04;;;;;;;;;;;;;;;21.08;100.00;98043.34;1678053;83;24990;-89
2022/09/09 08:51:31;;;;;;;;;;;;;;;21.15;100.00;98043.47;1684247;83;22069;-88
2022/09/09 08:53:59;;;;;;;;;;;;;;;21.25;100.00;98042.19;1688164;83;26209;-88
2022/09/09 08:56:33;;;;;;;;;;;;;;;21.27;100.00;98048.13;1686693;83;24475;-89
2022/09/09 08:59:02;;;;;;;;;;;;;;;21.25;100.00;98048.02;1684277;84;20258;-88
2022/09/09 09:01:33;;;;;;;;;;;;;;;21.27;100.00;98041.48;1684381;83;24768;-89
2022/09/09 09:04:18;;;;;;;;;;;;;;;21.34;100.00;98032.75;1690743;83;21628;-88
2022/09/09 09:06:54;;;;;;;;;;;;;;;21.35;100.00;98035.24;1689607;84;26018;-89
2022/09/09 09:09:41;;;;;;;;;;;;;;;21.33;100.00;98026.60;1682586;83;24391;-88
2022/09/09 09:12:15;;;;;;;;;;;;;;;21.31;100.00;98025.16;1691917;83;20235;-88
2022/09/09 09:14:44;;;;;;;;;;;;;;;21.34;100.00;98020.27;1685781;84;24887;-88
2022/09/09 09:17:12;;;;;;;;;;;;;;;21.26;100.00;98025.20;1675281;83;22081;-88
2022/09/09 09:19:40;;;;;;;;;;;;;;;21.36;100.00;98023.59;1685582;83;26170;-88
2022/09/09 09:22:08;;;;;;;;;;;;;;;21.52;100.00;98021.23;1687938;83;24599;-88
2022/09/09 09:24:54;;;;;;;;;;;;;;;21.69;100.00;98027.99;1690651;84;20246;-88
2022/09/09 09:30:26;;;;;;;;;;;;;;;22.00;100.00;98011.75;1691650;84;21952;-88
2022/09/09 09:32:54;;;;;;;;;;;;;;;22.07;100.00;98009.48;1692277;83;26026;-88
2022/09/09 09:35:20;;;;;;;;;;;;;;;22.10;100.00;98023.75;1692332;83;24444;-88
2022/09/09 09:37:52;;;;;;;;;;;;;;;22.11;100.00;98021.91;1692166;83;20196;-88
2022/09/09 09:40:21;;;;;;;;;;;;;;;22.12;100.00;98022.23;1691881;83;24861;-88
2022/09/09 09:42:49;;;;;;;;;;;;;;;22.07;100.00;98021.98;1692469;83;21920;-88
2022/09/09 09:45:31;;;;;;;;;;;;;;;22.04;100.00;98026.34;1689961;84;26082;-88
2022/09/09 09:48:02;;;;;;;;;;;;;;;22.07;100.00;98030.80;1692971;83;25106;-88
2022/09/09 09:50:47;;;;;;;;;;;;;;;22.17;100.00;98026.48;1691970;83;20494;-88
2022/09/09 09:53:19;;;;;;;;;;;;;;;22.26;100.00;98029.33;1692208;83;24731;-88
2022/09/09 09:55:47;;;;;;;;;;;;;;;22.38;100.00;98045.65;1692107;84;22077;-88
2022/09/09 09:58:16;;;;;;;;;;;;;;;22.42;100.00;98049.07;1691692;83;26063;-88
2022/09/09 10:00:49;;;;;;;;;;;;;;;22.42;100.00;98046.94;1692028;84;24439;-88
2022/09/09 10:03:33;;;;;;;;;;;;;;;22.46;100.00;98058.36;1691653;83;20223;-88
2022/09/09 10:06:00;;;;;;;;;;;;;;;22.56;100.00;98063.88;1691608;83;24768;-88
2022/09/09 10:08:34;;;;;;;;;;;;;;;22.54;100.00;98066.72;1694435;83;22065;-88
2022/09/09 10:11:08;;;;;;;;;;;;;;;22.53;100.00;98059.22;1691985;83;26066;-88
2022/09/09 10:13:36;;;;;;;;;;;;;;;22.54;100.00;98064.88;1689500;83;25163;-89
2022/09/09 10:16:22;;;;;;;;;;;;;;;22.60;100.00;98053.95;1692632;83;20362;-88
2022/09/09 10:18:54;;;;;;;;;;;;;;;22.58;100.00;98049.34;1690217;83;24930;-88
2022/09/09 10:21:23;;;;;;;;;;;;;;;22.55;100.00;98044.38;1692159;83;22391;-88
2022/09/09 10:24:09;;;;;;;;;;;;;;;22.50;100.00;98052.13;1685563;83;26181;-88
2022/09/09 10:26:48;;;;;;;;;;;;;;;22.45;100.00;98043.88;1670266;84;20180;-88
2022/09/09 10:29:37;;;;;;;;;;;;;;;22.48;100.00;98043.48;1687957;83;20278;-88
2022/09/09 10:32:10;;;;;;;;;;;;;;;22.50;100.00;98052.95;1684931;84;24779;-88
2022/09/09 10:35:02;;;;;;;;;;;;;;;22.54;100.00;98058.22;1685701;84;22053;-88
2022/09/09 10:37:38;;;;;;;;;;;;;;;22.54;100.00;98048.88;1685428;84;26227;-88
2022/09/09 10:40:25;;;;;;;;;;;;;;;22.63;100.00;98057.59;1682679;83;25202;-88
2022/09/09 10:42:54;;;;;;;;;;;;;;;22.56;100.00;98051.87;1688146;83;20208;-88
2022/09/09 10:45:26;;;;;;;;;;;;;;;22.60;100.00;98055.80;1689468;83;25588;-88
2022/09/09 10:48:06;;;;;;;;;;;;;;;22.62;100.00;98051.93;1682374;83;22737;-88
2022/09/09 10:50:49;;;;;;;;;;;;;;;22.72;100.00;98046.29;1672186;83;26029;-88
2022/09/09 10:53:17;;;;;;;;;;;;;;;22.83;100.00;98041.76;1681075;83;24445;-88
2022/09/09 10:55:44;;;;;;;;;;;;;;;22.76;100.00;98035.53;1681168;83;20303;-88
2022/09/09 10:58:18;;;;;;;;;;;;;;;22.61;100.00;98033.44;1679855;83;24892;-88
2022/09/09 11:00:48;;;;;;;;;;;;;;;22.52;100.00;98028.27;1679048;84;22805;-89
2022/09/09 11:03:29;;;;;;;;;;;;;;;22.52;100.00;98032.77;1679088;84;26059;-89
2022/09/09 11:06:06;;;;;;;;;;;;;;;22.71;100.00;98038.79;1686993;84;24579;-89
2022/09/09 11:08:39;;;;;;;;;;;;;;;22.86;100.00;98042.18;1679055;84;20243;-88
2022/09/09 11:11:26;;;;;;;;;;;;;;;22.99;100.00;98043.30;1681564;84;24757;-88
2022/09/09 11:14:02;;;;;;;;;;;;;;;23.09;100.00;98043.27;1691638;83;22620;-89
2022/09/09 11:19:16;;;;;;;;;;;;;;;23.24;100.00;98049.81;1686600;83;24502;-89
2022/09/09 11:21:53;;;;;;;;;;;;;;;23.24;100.00;98052.48;1683595;84;20212;-89
2022/09/09 11:24:38;;;;;;;;;;;;;;;23.28;100.00;98059.11;1672373;83;25571;-89
2022/09/09 11:27:16;;;;;;;;;;;;;;;23.31;100.00;98062.70;1684383;84;22260;-88
2022/09/09 11:30:09;;;;;;;;;;;;;;;23.32;100.00;98057.69;1687297;83;26072;-89
2022/09/09 11:32:46;;;;;;;;;;;;;;;23.37;100.00;98053.91;1685752;84;24498;-89
2022/09/09 11:35:23;;;;;;;;;;;;;;;23.38;100.00;98056.91;1684797;84;20203;-88
2022/09/09 11:37:55;;;;;;;;;;;;;;;23.36;100.00;98061.09;1668160;84;24736;-88
2022/09/09 11:40:30;;;;;;;;;;;;;;;23.41;100.00;98055.16;1685828;83;22151;-88
2022/09/09 11:43:21;;;;;;;;;;;;;;;23.49;100.00;98052.37;1673040;84;25627;-87
2022/09/09 11:45:58;;;;;;;;;;;;;;;23.57;100.00;98046.84;1680365;83;24498;-88
2022/09/09 11:48:45;;;;;;;;;;;;;;;23.67;100.00;98050.50;1673012;84;20394;-87
2022/09/09 11:51:25;;;;;;;;;;;;;;;23.65;100.00;98049.36;1684555;84;24776;-87
2022/09/09 11:53:54;;;;;;;;;;;;;;;23.49;100.00;98044.36;1687602;83;21980;-87
2022/09/09 11:56:31;;;;;;;;;;;;;;;23.51;100.00;98052.18;1675693;84;26138;-88
2022/09/09 11:59:00;;;;;;;;;;;;;;;23.59;100.00;98047.48;1675507;83;25248;-88
2022/09/09 12:01:28;;;;;;;;;;;;;;;23.67;100.00;98054.00;1684878;83;20290;-88
2022/09/09 12:04:17;;;;;;;;;;;;;;;23.77;100.00;98053.62;1687072;83;24807;-88
2022/09/09 12:06:55;;;;;;;;;;;;;;;23.74;100.00;98054.83;1677170;83;22068;-88
2022/09/09 12:09:25;;;;;;;;;;;;;;;23.64;100.00;98057.56;1676226;83;26063;-89
2022/09/09 12:12:25;;;;;;;;;;;;;;;23.67;100.00;98070.03;1685203;83;25398;-87
2022/09/09 12:15:15;;;;;;;;;;;;;;;23.68;100.00;98069.50;1685498;84;20462;-88
2022/09/09 12:17:47;;;;;;;;;;;;;;;23.80;100.00;98061.73;1687933;83;24874;-88
2022/09/09 12:20:34;;;;;;;;;;;;;;;23.88;100.00;98066.92;1687525;84;22064;-88
2022/09/09 12:23:14;;;;;;;;;;;;;;;23.94;100.00;98060.27;1683447;83;26629;-88
2022/09/09 12:25:43;;;;;;;;;;;;;;;23.95;100.00;98060.55;1671103;84;25316;-88
2022/09/09 12:31:31;;;;;;;;;;;;;;;23.96;100.00;98054.19;1674200;84;24943;-87
2022/09/09 12:37:18;;;;;;;;;;;;;;;24.06;100.00;98047.11;1585441;89;23174;-88
2022/09/09 12:39:47;;;;;;;;;;;;;;;24.08;100.00;98043.73;1642300;84;24397;-88
2022/09/09 12:42:18;;;;;;;;;;;;;;;24.09;100.00;98035.52;1671566;84;20223;-88
2022/09/09 12:45:11;;;;;;;;;;;;;;;24.12;100.00;98036.44;1671458;84;24906;-88
2022/09/09 12:47:42;;;;;;;;;;;;;;;24.09;100.00;98038.20;1672818;84;22333;-88
2022/09/09 12:50:28;;;;;;;;;;;;;;;24.11;100.00;98037.46;1681463;84;25944;-88
2022/09/09 12:53:15;;;;;;;;;;;;;;;24.17;100.00;98037.16;1675574;84;24452;-88
2022/09/09 12:55:45;;;;;;;;;;;;;;;24.20;100.00;98031.45;1666285;84;20457;-88
2022/09/09 12:58:15;;;;;;;;;;;;;;;24.27;100.00;98029.63;1651529;84;24912;-88
2022/09/09 13:00:57;;;;;;;;;;;;;;;24.28;100.00;98035.77;1672289;84;22006;-89
2022/09/09 13:03:24;;;;;;;;;;;;;;;24.33;100.00;98030.12;1664504;84;26024;-88
2022/09/09 13:05:50;;;;;;;;;;;;;;;24.42;100.00;98020.89;1672551;84;24637;-89
2022/09/09 13:08:26;;;;;;;;;;;;;;;24.47;100.00;98022.44;1681663;84;20150;-89
2022/09/09 13:11:12;;;;;;;;;;;;;;;24.47;100.00;98022.95;1668736;84;24800;-88
2022/09/09 13:13:55;;;;;;;;;;;;;;;24.46;100.00;98033.33;1665508;83;22879;-88
2022/09/09 13:16:23;;;;;;;;;;;;;;;24.41;100.00;98032.61;1659284;84;26876;-89
2022/09/09 13:19:07;;;;;;;;;;;;;;;24.38;100.00;98029.02;1669349;84;22434;-88